LiveATC.Net - Listen to live air traffic control over the Internet!


ICAO: ZBAA  IATA: PEK   Airport: Beijing Capital International Airport
City: Beijing
Country: China   Continent: Asia
ZBAA METAR Weather: ZBAA 241130Z 20003MPS 170V250 CAVOK 21/00 Q1016 NOSIG
ZBAA Flight Activity (FlightAware)
ZBAA Approach
Feed Status: UP   Listeners: 5
Listen right in your browser - requires Flash (in browser, requires Flash)
Click here to listen with your own player (launches your MP3 player)
ZBAA Approach Audio Archives
FacilityFrequency
Beijing Approach120.600

ZBAA Tower
Feed Status: DOWN
Last heard on: 2018-04-23 11:22:03 (1 days 1 hours 5 minutes ago)
ZBAA Tower Audio Archives
FacilityFrequency
Beijing Tower (Rwy 01/19)118.600


NOTICE

Unauthorized use prohibited. See LiveATC.net Terms of Service


Find LiveATC Audio Streams


Airport/ARTCC Code

Frequency Search
(e.g., 124.400, 128.75)
Site-wide search
 


Browse LiveATC Feeds
LiveATC Coverage Map
Top 50 LiveATC Feeds
Bad Weather Areas

LiveATC FAQ
Offer a LiveATC Feed
Contact LiveATC.net
Press Inquiries

LiveATC on iPhone
LiveATC on Android

Windows Phone
Windows 8/10

LiveATC Mobile
(Mobile browser)

ATC Audio Archives
Interesting Recordings

LiveATC Forums


Home Page
About LiveATC.net
Make a Donation
Terms of Use
Privacy Policy

Canadian Air Freqs

AIRMETs/SIGMETs

FAA Airport Status
Nat'l Airspace Status
Arrival Demand Charts


Server Software By:
Icecast.org
Liquidsoap